sensor_id;sensor_type;location;lat;lon;timestamp;P1;durP1;ratioP1;P2;durP2;ratioP2
3587;SDS011;1808;53.596;9.972;2023-02-24T00:00:08;2.45;;;0.73;;
3587;SDS011;1808;53.596;9.972;2023-02-24T00:02:57;2.15;;;1.00;;
3587;SDS011;1808;53.596;9.972;2023-02-24T00:05:29;8.27;;;1.48;;
3587;SDS011;1808;53.596;9.972;2023-02-24T00:07:57;8.40;;;1.63;;
3587;SDS011;1808;53.596;9.972;2023-02-24T00:10:24;6.47;;;1.23;;
3587;SDS011;1808;53.596;9.972;2023-02-24T00:12:50;4.25;;;0.90;;
3587;SDS011;1808;53.596;9.972;2023-02-24T00:15:18;11.73;;;1.65;;
3587;SDS011;1808;53.596;9.972;2023-02-24T00:17:44;5.47;;;1.02;;
3587;SDS011;1808;53.596;9.972;2023-02-24T00:20:12;7.35;;;1.70;;
3587;SDS011;1808;53.596;9.972;2023-02-24T00:22:40;2.42;;;0.77;;
3587;SDS011;1808;53.596;9.972;2023-02-24T00:25:09;8.60;;;1.35;;
3587;SDS011;1808;53.596;9.972;2023-02-24T00:27:36;6.28;;;1.20;;
3587;SDS011;1808;53.596;9.972;2023-02-24T00:30:03;9.40;;;1.25;;
3587;SDS011;1808;53.596;9.972;2023-02-24T00:32:30;9.90;;;1.95;;
3587;SDS011;1808;53.596;9.972;2023-02-24T00:34:57;6.47;;;1.65;;
3587;SDS011;1808;53.596;9.972;2023-02-24T00:37:24;3.15;;;0.98;;
3587;SDS011;1808;53.596;9.972;2023-02-24T00:39:51;6.78;;;1.00;;
3587;SDS011;1808;53.596;9.972;2023-02-24T00:42:22;8.18;;;1.15;;
3587;SDS011;1808;53.596;9.972;2023-02-24T00:44:48;10.52;;;1.48;;
3587;SDS011;1808;53.596;9.972;2023-02-24T00:47:18;9.80;;;1.38;;
3587;SDS011;1808;53.596;9.972;2023-02-24T00:49:46;2.13;;;0.77;;
3587;SDS011;1808;53.596;9.972;2023-02-24T00:52:15;8.85;;;2.13;;
3587;SDS011;1808;53.596;9.972;2023-02-24T00:54:44;5.90;;;1.17;;
3587;SDS011;1808;53.596;9.972;2023-02-24T00:57:11;10.98;;;1.60;;
3587;SDS011;1808;53.596;9.972;2023-02-24T00:59:38;7.22;;;0.98;;
3587;SDS011;1808;53.596;9.972;2023-02-24T01:02:05;9.35;;;1.20;;
3587;SDS011;1808;53.596;9.972;2023-02-24T01:04:32;5.65;;;1.30;;
3587;SDS011;1808;53.596;9.972;2023-02-24T01:06:58;8.82;;;1.20;;
3587;SDS011;1808;53.596;9.972;2023-02-24T01:09:26;5.97;;;1.25;;
3587;SDS011;1808;53.596;9.972;2023-02-24T01:11:55;8.65;;;1.30;;
3587;SDS011;1808;53.596;9.972;2023-02-24T01:14:46;8.13;;;1.30;;
3587;SDS011;1808;53.596;9.972;2023-02-24T01:17:15;7.72;;;1.88;;
3587;SDS011;1808;53.596;9.972;2023-02-24T01:19:43;10.55;;;1.20;;
3587;SDS011;1808;53.596;9.972;2023-02-24T01:22:13;10.68;;;1.38;;
3587;SDS011;1808;53.596;9.972;2023-02-24T01:24:40;10.68;;;1.17;;
3587;SDS011;1808;53.596;9.972;2023-02-24T01:27:10;8.35;;;1.27;;
3587;SDS011;1808;53.596;9.972;2023-02-24T01:29:37;15.30;;;2.10;;
3587;SDS011;1808;53.596;9.972;2023-02-24T01:32:04;9.25;;;2.53;;
3587;SDS011;1808;53.596;9.972;2023-02-24T01:34:30;13.63;;;1.50;;
3587;SDS011;1808;53.596;9.972;2023-02-24T01:36:58;11.77;;;1.90;;
3587;SDS011;1808;53.596;9.972;2023-02-24T01:39:25;13.13;;;1.50;;
3587;SDS011;1808;53.596;9.972;2023-02-24T01:41:52;6.55;;;1.10;;
3587;SDS011;1808;53.596;9.972;2023-02-24T01:47:24;10.07;;;1.25;;
3587;SDS011;1808;53.596;9.972;2023-02-24T01:49:55;9.15;;;1.73;;
3587;SDS011;1808;53.596;9.972;2023-02-24T01:52:22;6.65;;;1.15;;
3587;SDS011;1808;53.596;9.972;2023-02-24T01:54:51;6.60;;;1.50;;
3587;SDS011;1808;53.596;9.972;2023-02-24T01:57:21;7.95;;;1.58;;
3587;SDS011;1808;53.596;9.972;2023-02-24T01:59:49;7.25;;;1.20;;
3587;SDS011;1808;53.596;9.972;2023-02-24T02:02:16;6.18;;;1.33;;
3587;SDS011;1808;53.596;9.972;2023-02-24T02:04:45;7.75;;;1.23;;
3587;SDS011;1808;53.596;9.972;2023-02-24T02:07:14;7.15;;;1.17;;
3587;SDS011;1808;53.596;9.972;2023-02-24T02:09:42;6.63;;;1.38;;
3587;SDS011;1808;53.596;9.972;2023-02-24T02:12:09;9.30;;;1.17;;
3587;SDS011;1808;53.596;9.972;2023-02-24T02:14:37;8.60;;;1.23;;
3587;SDS011;1808;53.596;9.972;2023-02-24T02:17:08;7.97;;;1.60;;
3587;SDS011;1808;53.596;9.972;2023-02-24T02:19:54;11.02;;;1.15;;
3587;SDS011;1808;53.596;9.972;2023-02-24T02:22:52;10.88;;;1.50;;
3587;SDS011;1808;53.596;9.972;2023-02-24T02:25:26;8.07;;;1.67;;
3587;SDS011;1808;53.596;9.972;2023-02-24T02:28:07;8.40;;;1.20;;
3587;SDS011;1808;53.596;9.972;2023-02-24T02:31:02;6.95;;;1.20;;
3587;SDS011;1808;53.596;9.972;2023-02-24T02:33:52;9.20;;;1.52;;
3587;SDS011;1808;53.596;9.972;2023-02-24T02:36:30;10.55;;;1.92;;
3587;SDS011;1808;53.596;9.972;2023-02-24T02:39:00;5.43;;;1.00;;
3587;SDS011;1808;53.596;9.972;2023-02-24T02:41:38;16.80;;;1.38;;
3587;SDS011;1808;53.596;9.972;2023-02-24T02:44:13;7.10;;;1.27;;
3587;SDS011;1808;53.596;9.972;2023-02-24T02:46:45;11.95;;;1.67;;
3587;SDS011;1808;53.596;9.972;2023-02-24T02:49:16;8.95;;;1.25;;
3587;SDS011;1808;53.596;9.972;2023-02-24T02:51:47;8.93;;;1.23;;
3587;SDS011;1808;53.596;9.972;2023-02-24T02:54:17;6.63;;;1.10;;
3587;SDS011;1808;53.596;9.972;2023-02-24T02:56:45;6.38;;;1.10;;
3587;SDS011;1808;53.596;9.972;2023-02-24T02:59:15;12.82;;;1.67;;
3587;SDS011;1808;53.596;9.972;2023-02-24T03:01:46;8.35;;;2.42;;
3587;SDS011;1808;53.596;9.972;2023-02-24T03:04:13;8.23;;;1.17;;
3587;SDS011;1808;53.596;9.972;2023-02-24T03:06:42;8.35;;;1.05;;
3587;SDS011;1808;53.596;9.972;2023-02-24T03:09:10;5.78;;;1.10;;
3587;SDS011;1808;53.596;9.972;2023-02-24T03:11:41;6.53;;;1.35;;
3587;SDS011;1808;53.596;9.972;2023-02-24T03:14:09;5.93;;;1.70;;
3587;SDS011;1808;53.596;9.972;2023-02-24T03:16:37;14.88;;;1.52;;
3587;SDS011;1808;53.596;9.972;2023-02-24T03:19:05;5.30;;;1.45;;
3587;SDS011;1808;53.596;9.972;2023-02-24T03:21:35;9.32;;;1.63;;
3587;SDS011;1808;53.596;9.972;2023-02-24T03:24:05;13.60;;;1.83;;
3587;SDS011;1808;53.596;9.972;2023-02-24T03:26:35;10.88;;;1.95;;
3587;SDS011;1808;53.596;9.972;2023-02-24T03:29:07;8.68;;;1.30;;
3587;SDS011;1808;53.596;9.972;2023-02-24T03:31:36;9.73;;;1.45;;
3587;SDS011;1808;53.596;9.972;2023-02-24T03:34:08;7.78;;;2.35;;
3587;SDS011;1808;53.596;9.972;2023-02-24T03:36:38;6.22;;;1.13;;
3587;SDS011;1808;53.596;9.972;2023-02-24T03:39:04;10.13;;;1.30;;
3587;SDS011;1808;53.596;9.972;2023-02-24T03:41:36;14.68;;;1.98;;
3587;SDS011;1808;53.596;9.972;2023-02-24T03:44:05;6.03;;;1.00;;
3587;SDS011;1808;53.596;9.972;2023-02-24T03:46:33;7.80;;;1.20;;
3587;SDS011;1808;53.596;9.972;2023-02-24T03:49:01;8.32;;;1.20;;
3587;SDS011;1808;53.596;9.972;2023-02-24T03:51:28;4.68;;;1.00;;
3587;SDS011;1808;53.596;9.972;2023-02-24T03:53:59;6.13;;;0.98;;
3587;SDS011;1808;53.596;9.972;2023-02-24T03:56:32;10.98;;;1.40;;
3587;SDS011;1808;53.596;9.972;2023-02-24T03:59:07;9.52;;;2.55;;
3587;SDS011;1808;53.596;9.972;2023-02-24T04:01:41;9.52;;;1.70;;
3587;SDS011;1808;53.596;9.972;2023-02-24T04:04:15;13.15;;;1.42;;
3587;SDS011;1808;53.596;9.972;2023-02-24T04:06:44;11.88;;;1.20;;
3587;SDS011;1808;53.596;9.972;2023-02-24T04:09:15;11.40;;;1.67;;
3587;SDS011;1808;53.596;9.972;2023-02-24T04:11:46;13.70;;;3.08;;
3587;SDS011;1808;53.596;9.972;2023-02-24T04:14:16;5.50;;;1.38;;
3587;SDS011;1808;53.596;9.972;2023-02-24T04:19:17;11.70;;;1.38;;
3587;SDS011;1808;53.596;9.972;2023-02-24T04:21:44;6.82;;;1.27;;
3587;SDS011;1808;53.596;9.972;2023-02-24T04:24:15;4.38;;;1.00;;
3587;SDS011;1808;53.596;9.972;2023-02-24T04:26:43;7.25;;;1.48;;
3587;SDS011;1808;53.596;9.972;2023-02-24T04:29:11;8.55;;;1.10;;
3587;SDS011;1808;53.596;9.972;2023-02-24T04:31:42;8.23;;;1.40;;
3587;SDS011;1808;53.596;9.972;2023-02-24T04:34:08;2.78;;;1.20;;
3587;SDS011;1808;53.596;9.972;2023-02-24T04:36:34;3.50;;;1.23;;
3587;SDS011;1808;53.596;9.972;2023-02-24T04:39:02;7.30;;;1.98;;
3587;SDS011;1808;53.596;9.972;2023-02-24T04:41:30;12.85;;;1.95;;
3587;SDS011;1808;53.596;9.972;2023-02-24T04:43:56;6.35;;;1.85;;
3587;SDS011;1808;53.596;9.972;2023-02-24T04:46:22;12.50;;;1.70;;
3587;SDS011;1808;53.596;9.972;2023-02-24T04:48:49;4.53;;;1.15;;
3587;SDS011;1808;53.596;9.972;2023-02-24T04:51:15;4.30;;;1.30;;
3587;SDS011;1808;53.596;9.972;2023-02-24T04:53:44;5.88;;;1.20;;
3587;SDS011;1808;53.596;9.972;2023-02-24T04:56:10;6.57;;;1.10;;
3587;SDS011;1808;53.596;9.972;2023-02-24T04:58:38;6.05;;;1.50;;
3587;SDS011;1808;53.596;9.972;2023-02-24T05:01:07;2.78;;;0.68;;
3587;SDS011;1808;53.596;9.972;2023-02-24T05:03:35;10.90;;;1.40;;
3587;SDS011;1808;53.596;9.972;2023-02-24T05:06:02;6.68;;;1.23;;
3587;SDS011;1808;53.596;9.972;2023-02-24T05:08:30;3.70;;;1.02;;
3587;SDS011;1808;53.596;9.972;2023-02-24T05:10:57;9.75;;;1.23;;
3587;SDS011;1808;53.596;9.972;2023-02-24T05:13:25;12.10;;;1.38;;
3587;SDS011;1808;53.596;9.972;2023-02-24T05:15:54;10.25;;;1.27;;
3587;SDS011;1808;53.596;9.972;2023-02-24T05:18:22;11.57;;;1.85;;
3587;SDS011;1808;53.596;9.972;2023-02-24T05:20:49;10.38;;;1.70;;
3587;SDS011;1808;53.596;9.972;2023-02-24T05:23:35;9.57;;;1.52;;
3587;SDS011;1808;53.596;9.972;2023-02-24T05:26:04;7.20;;;1.38;;
3587;SDS011;1808;53.596;9.972;2023-02-24T05:28:33;9.30;;;1.60;;
3587;SDS011;1808;53.596;9.972;2023-02-24T05:31:05;9.10;;;3.00;;
3587;SDS011;1808;53.596;9.972;2023-02-24T05:33:33;8.43;;;1.50;;
3587;SDS011;1808;53.596;9.972;2023-02-24T05:36:01;4.88;;;1.30;;
3587;SDS011;1808;53.596;9.972;2023-02-24T05:38:27;5.82;;;1.10;;
3587;SDS011;1808;53.596;9.972;2023-02-24T05:40:54;12.10;;;1.90;;
3587;SDS011;1808;53.596;9.972;2023-02-24T05:43:28;6.85;;;1.50;;
3587;SDS011;1808;53.596;9.972;2023-02-24T05:45:55;6.95;;;2.00;;
3587;SDS011;1808;53.596;9.972;2023-02-24T05:48:22;5.32;;;1.48;;
3587;SDS011;1808;53.596;9.972;2023-02-24T05:50:50;6.70;;;1.48;;
3587;SDS011;1808;53.596;9.972;2023-02-24T05:53:19;9.60;;;1.38;;
3587;SDS011;1808;53.596;9.972;2023-02-24T05:55:47;10.18;;;1.30;;
3587;SDS011;1808;53.596;9.972;2023-02-24T05:58:14;4.78;;;1.00;;
3587;SDS011;1808;53.596;9.972;2023-02-24T06:00:40;9.70;;;1.20;;
3587;SDS011;1808;53.596;9.972;2023-02-24T06:03:10;11.60;;;1.75;;
3587;SDS011;1808;53.596;9.972;2023-02-24T06:05:42;10.40;;;1.50;;
3587;SDS011;1808;53.596;9.972;2023-02-24T06:08:08;8.45;;;1.48;;
3587;SDS011;1808;53.596;9.972;2023-02-24T06:10:36;4.10;;;1.20;;
3587;SDS011;1808;53.596;9.972;2023-02-24T06:13:05;8.30;;;1.65;;
3587;SDS011;1808;53.596;9.972;2023-02-24T06:15:32;10.57;;;1.40;;
3587;SDS011;1808;53.596;9.972;2023-02-24T06:17:59;10.95;;;1.80;;
3587;SDS011;1808;53.596;9.972;2023-02-24T06:20:26;8.88;;;2.13;;
3587;SDS011;1808;53.596;9.972;2023-02-24T06:22:55;6.82;;;1.73;;
3587;SDS011;1808;53.596;9.972;2023-02-24T06:25:22;9.88;;;2.45;;
3587;SDS011;1808;53.596;9.972;2023-02-24T06:27:50;9.80;;;1.77;;
3587;SDS011;1808;53.596;9.972;2023-02-24T06:30:18;8.98;;;1.92;;
3587;SDS011;1808;53.596;9.972;2023-02-24T06:32:46;8.40;;;1.88;;
3587;SDS011;1808;53.596;9.972;2023-02-24T06:35:13;8.85;;;1.70;;
3587;SDS011;1808;53.596;9.972;2023-02-24T06:37:40;11.98;;;2.42;;
3587;SDS011;1808;53.596;9.972;2023-02-24T06:40:09;7.20;;;1.70;;
3587;SDS011;1808;53.596;9.972;2023-02-24T06:42:39;12.68;;;2.15;;
3587;SDS011;1808;53.596;9.972;2023-02-24T06:45:09;7.43;;;2.17;;
3587;SDS011;1808;53.596;9.972;2023-02-24T06:47:36;6.13;;;1.88;;
3587;SDS011;1808;53.596;9.972;2023-02-24T06:50:02;10.23;;;2.45;;
3587;SDS011;1808;53.596;9.972;2023-02-24T06:52:30;8.02;;;2.72;;
3587;SDS011;1808;53.596;9.972;2023-02-24T06:54:57;9.45;;;4.15;;
3587;SDS011;1808;53.596;9.972;2023-02-24T06:57:24;10.50;;;2.42;;
3587;SDS011;1808;53.596;9.972;2023-02-24T06:59:52;11.88;;;2.88;;
3587;SDS011;1808;53.596;9.972;2023-02-24T07:02:20;5.90;;;2.35;;
3587;SDS011;1808;53.596;9.972;2023-02-24T07:04:49;16.20;;;2.78;;
3587;SDS011;1808;53.596;9.972;2023-02-24T07:07:19;12.10;;;3.78;;
3587;SDS011;1808;53.596;9.972;2023-02-24T07:09:46;10.45;;;2.88;;
3587;SDS011;1808;53.596;9.972;2023-02-24T07:12:12;9.20;;;2.95;;
3587;SDS011;1808;53.596;9.972;2023-02-24T07:14:46;7.47;;;2.35;;
3587;SDS011;1808;53.596;9.972;2023-02-24T07:17:14;11.25;;;3.13;;
3587;SDS011;1808;53.596;9.972;2023-02-24T07:19:43;8.00;;;2.70;;
3587;SDS011;1808;53.596;9.972;2023-02-24T07:22:10;8.93;;;2.30;;
3587;SDS011;1808;53.596;9.972;2023-02-24T07:24:38;17.83;;;2.75;;
3587;SDS011;1808;53.596;9.972;2023-02-24T07:27:10;9.93;;;2.95;;
3587;SDS011;1808;53.596;9.972;2023-02-24T07:29:47;9.93;;;2.70;;
3587;SDS011;1808;53.596;9.972;2023-02-24T07:32:14;7.22;;;3.08;;
3587;SDS011;1808;53.596;9.972;2023-02-24T07:34:42;9.70;;;3.20;;
3587;SDS011;1808;53.596;9.972;2023-02-24T07:37:09;8.30;;;3.08;;
3587;SDS011;1808;53.596;9.972;2023-02-24T07:39:37;9.60;;;2.88;;
3587;SDS011;1808;53.596;9.972;2023-02-24T07:42:04;8.45;;;2.83;;
3587;SDS011;1808;53.596;9.972;2023-02-24T07:44:31;10.00;;;3.97;;
3587;SDS011;1808;53.596;9.972;2023-02-24T07:46:59;12.38;;;2.70;;
3587;SDS011;1808;53.596;9.972;2023-02-24T07:49:31;11.30;;;2.70;;
3587;SDS011;1808;53.596;9.972;2023-02-24T07:51:57;15.27;;;3.80;;
3587;SDS011;1808;53.596;9.972;2023-02-24T07:54:24;6.00;;;2.08;;
3587;SDS011;1808;53.596;9.972;2023-02-24T07:56:53;7.85;;;2.17;;
3587;SDS011;1808;53.596;9.972;2023-02-24T07:59:24;14.43;;;2.85;;
3587;SDS011;1808;53.596;9.972;2023-02-24T08:01:51;14.02;;;4.15;;
3587;SDS011;1808;53.596;9.972;2023-02-24T08:04:21;11.95;;;3.53;;
3587;SDS011;1808;53.596;9.972;2023-02-24T08:06:49;7.07;;;2.65;;
3587;SDS011;1808;53.596;9.972;2023-02-24T08:09:22;9.90;;;3.53;;
3587;SDS011;1808;53.596;9.972;2023-02-24T08:12:03;8.98;;;3.42;;
3587;SDS011;1808;53.596;9.972;2023-02-24T08:14:31;7.88;;;3.42;;
3587;SDS011;1808;53.596;9.972;2023-02-24T08:16:59;14.18;;;3.50;;
3587;SDS011;1808;53.596;9.972;2023-02-24T08:19:31;14.68;;;3.55;;
3587;SDS011;1808;53.596;9.972;2023-02-24T08:22:04;10.27;;;3.05;;
3587;SDS011;1808;53.596;9.972;2023-02-24T08:24:43;10.45;;;3.63;;
3587;SDS011;1808;53.596;9.972;2023-02-24T08:27:09;8.38;;;3.40;;
3587;SDS011;1808;53.596;9.972;2023-02-24T08:29:37;10.50;;;3.28;;
3587;SDS011;1808;53.596;9.972;2023-02-24T08:32:21;10.52;;;3.42;;
3587;SDS011;1808;53.596;9.972;2023-02-24T08:34:49;8.18;;;2.67;;
3587;SDS011;1808;53.596;9.972;2023-02-24T08:37:20;9.05;;;2.88;;
3587;SDS011;1808;53.596;9.972;2023-02-24T08:39:47;6.88;;;2.92;;
3587;SDS011;1808;53.596;9.972;2023-02-24T08:42:17;11.45;;;4.47;;
3587;SDS011;1808;53.596;9.972;2023-02-24T08:44:44;11.75;;;5.28;;
3587;SDS011;1808;53.596;9.972;2023-02-24T08:47:14;17.95;;;8.43;;
3587;SDS011;1808;53.596;9.972;2023-02-24T08:49:44;15.60;;;7.90;;
3587;SDS011;1808;53.596;9.972;2023-02-24T08:52:14;16.17;;;6.43;;
3587;SDS011;1808;53.596;9.972;2023-02-24T08:54:41;16.08;;;8.23;;
3587;SDS011;1808;53.596;9.972;2023-02-24T08:57:13;14.82;;;6.93;;
3587;SDS011;1808;53.596;9.972;2023-02-24T08:59:42;25.33;;;10.57;;
3587;SDS011;1808;53.596;9.972;2023-02-24T09:02:14;24.30;;;12.52;;
3587;SDS011;1808;53.596;9.972;2023-02-24T09:04:48;23.70;;;12.30;;
3587;SDS011;1808;53.596;9.972;2023-02-24T09:07:18;19.75;;;9.35;;
3587;SDS011;1808;53.596;9.972;2023-02-24T09:09:46;18.17;;;7.80;;
3587;SDS011;1808;53.596;9.972;2023-02-24T09:12:13;14.27;;;6.57;;
3587;SDS011;1808;53.596;9.972;2023-02-24T09:17:13;12.80;;;6.30;;
3587;SDS011;1808;53.596;9.972;2023-02-24T09:19:44;21.02;;;12.65;;
3587;SDS011;1808;53.596;9.972;2023-02-24T09:22:31;15.93;;;9.75;;
3587;SDS011;1808;53.596;9.972;2023-02-24T09:25:05;17.27;;;7.72;;
3587;SDS011;1808;53.596;9.972;2023-02-24T09:27:50;17.85;;;8.60;;
3587;SDS011;1808;53.596;9.972;2023-02-24T09:30:19;18.70;;;7.88;;
3587;SDS011;1808;53.596;9.972;2023-02-24T09:33:10;16.77;;;8.43;;
3587;SDS011;1808;53.596;9.972;2023-02-24T09:35:46;11.38;;;6.40;;
3587;SDS011;1808;53.596;9.972;2023-02-24T09:38:15;17.08;;;9.00;;
3587;SDS011;1808;53.596;9.972;2023-02-24T09:40:43;10.88;;;6.45;;
3587;SDS011;1808;53.596;9.972;2023-02-24T09:43:19;18.63;;;6.80;;
3587;SDS011;1808;53.596;9.972;2023-02-24T09:45:50;10.05;;;4.95;;
3587;SDS011;1808;53.596;9.972;2023-02-24T09:48:23;12.70;;;6.00;;
3587;SDS011;1808;53.596;9.972;2023-02-24T09:50:54;11.32;;;5.93;;
3587;SDS011;1808;53.596;9.972;2023-02-24T09:53:31;13.55;;;7.72;;
3587;SDS011;1808;53.596;9.972;2023-02-24T09:56:04;12.45;;;5.45;;
3587;SDS011;1808;53.596;9.972;2023-02-24T09:58:41;13.65;;;6.88;;
3587;SDS011;1808;53.596;9.972;2023-02-24T10:01:16;14.52;;;7.13;;
3587;SDS011;1808;53.596;9.972;2023-02-24T10:06:28;10.68;;;5.53;;
3587;SDS011;1808;53.596;9.972;2023-02-24T10:09:01;12.82;;;5.13;;
3587;SDS011;1808;53.596;9.972;2023-02-24T10:11:35;14.55;;;6.07;;
3587;SDS011;1808;53.596;9.972;2023-02-24T10:14:04;16.45;;;8.10;;
3587;SDS011;1808;53.596;9.972;2023-02-24T10:16:34;13.57;;;5.95;;
3587;SDS011;1808;53.596;9.972;2023-02-24T10:19:10;14.52;;;6.95;;
3587;SDS011;1808;53.596;9.972;2023-02-24T10:21:42;13.02;;;7.35;;
3587;SDS011;1808;53.596;9.972;2023-02-24T10:24:16;11.82;;;5.95;;
3587;SDS011;1808;53.596;9.972;2023-02-24T10:26:47;14.27;;;6.50;;
3587;SDS011;1808;53.596;9.972;2023-02-24T10:29:22;14.27;;;6.38;;
3587;SDS011;1808;53.596;9.972;2023-02-24T10:31:58;10.32;;;5.40;;
3587;SDS011;1808;53.596;9.972;2023-02-24T10:34:31;9.77;;;5.20;;
3587;SDS011;1808;53.596;9.972;2023-02-24T10:36:58;10.95;;;5.80;;
3587;SDS011;1808;53.596;9.972;2023-02-24T10:39:31;8.27;;;5.53;;
3587;SDS011;1808;53.596;9.972;2023-02-24T10:41:58;9.23;;;4.97;;
3587;SDS011;1808;53.596;9.972;2023-02-24T10:44:39;12.00;;;5.20;;
3587;SDS011;1808;53.596;9.972;2023-02-24T10:47:16;12.20;;;6.03;;
3587;SDS011;1808;53.596;9.972;2023-02-24T10:49:44;7.55;;;4.50;;
3587;SDS011;1808;53.596;9.972;2023-02-24T10:52:21;7.22;;;3.97;;
3587;SDS011;1808;53.596;9.972;2023-02-24T10:55:21;13.05;;;5.53;;
3587;SDS011;1808;53.596;9.972;2023-02-24T10:57:53;9.48;;;5.60;;
3587;SDS011;1808;53.596;9.972;2023-02-24T11:00:35;6.13;;;3.40;;
3587;SDS011;1808;53.596;9.972;2023-02-24T11:03:25;8.80;;;4.45;;
3587;SDS011;1808;53.596;9.972;2023-02-24T11:06:15;8.00;;;4.75;;
3587;SDS011;1808;53.596;9.972;2023-02-24T11:08:55;10.90;;;5.43;;
3587;SDS011;1808;53.596;9.972;2023-02-24T11:11:44;8.80;;;5.88;;
3587;SDS011;1808;53.596;9.972;2023-02-24T11:14:29;11.98;;;5.75;;
3587;SDS011;1808;53.596;9.972;2023-02-24T11:17:18;12.15;;;6.05;;
3587;SDS011;1808;53.596;9.972;2023-02-24T11:19:48;6.63;;;3.97;;
3587;SDS011;1808;53.596;9.972;2023-02-24T11:22:16;8.85;;;4.20;;
3587;SDS011;1808;53.596;9.972;2023-02-24T11:24:45;10.57;;;5.03;;
3587;SDS011;1808;53.596;9.972;2023-02-24T11:27:15;9.30;;;5.00;;
3587;SDS011;1808;53.596;9.972;2023-02-24T11:29:47;8.50;;;5.13;;
3587;SDS011;1808;53.596;9.972;2023-02-24T11:32:30;9.35;;;5.07;;
3587;SDS011;1808;53.596;9.972;2023-02-24T11:35:04;10.77;;;5.00;;
3587;SDS011;1808;53.596;9.972;2023-02-24T11:37:36;8.75;;;4.68;;
3587;SDS011;1808;53.596;9.972;2023-02-24T11:40:05;10.02;;;5.00;;
3587;SDS011;1808;53.596;9.972;2023-02-24T11:42:38;10.15;;;5.32;;
3587;SDS011;1808;53.596;9.972;2023-02-24T11:45:11;11.73;;;5.15;;
3587;SDS011;1808;53.596;9.972;2023-02-24T11:47:47;10.35;;;5.65;;
3587;SDS011;1808;53.596;9.972;2023-02-24T11:50:22;14.13;;;6.65;;
3587;SDS011;1808;53.596;9.972;2023-02-24T11:52:57;9.50;;;4.70;;
3587;SDS011;1808;53.596;9.972;2023-02-24T11:55:28;11.43;;;5.57;;
3587;SDS011;1808;53.596;9.972;2023-02-24T11:58:02;14.40;;;6.55;;
3587;SDS011;1808;53.596;9.972;2023-02-24T12:00:34;10.23;;;4.95;;
3587;SDS011;1808;53.596;9.972;2023-02-24T12:03:03;13.43;;;6.80;;
3587;SDS011;1808;53.596;9.972;2023-02-24T12:05:37;12.80;;;6.13;;
3587;SDS011;1808;53.596;9.972;2023-02-24T12:08:08;16.27;;;6.68;;
3587;SDS011;1808;53.596;9.972;2023-02-24T12:10:41;11.25;;;6.78;;
3587;SDS011;1808;53.596;9.972;2023-02-24T12:13:15;15.55;;;7.70;;
3587;SDS011;1808;53.596;9.972;2023-02-24T12:15:44;11.70;;;6.32;;
3587;SDS011;1808;53.596;9.972;2023-02-24T12:18:15;13.15;;;5.40;;
3587;SDS011;1808;53.596;9.972;2023-02-24T12:20:46;10.27;;;5.70;;
3587;SDS011;1808;53.596;9.972;2023-02-24T12:23:15;10.73;;;6.63;;
3587;SDS011;1808;53.596;9.972;2023-02-24T12:25:50;11.63;;;5.95;;
3587;SDS011;1808;53.596;9.972;2023-02-24T12:28:26;16.88;;;5.97;;
3587;SDS011;1808;53.596;9.972;2023-02-24T12:30:59;10.93;;;5.55;;
3587;SDS011;1808;53.596;9.972;2023-02-24T12:33:31;16.65;;;7.18;;
3587;SDS011;1808;53.596;9.972;2023-02-24T12:36:10;9.90;;;6.13;;
3587;SDS011;1808;53.596;9.972;2023-02-24T12:38:48;13.88;;;6.63;;
3587;SDS011;1808;53.596;9.972;2023-02-24T12:41:24;21.25;;;9.52;;
3587;SDS011;1808;53.596;9.972;2023-02-24T12:44:00;11.10;;;5.05;;
3587;SDS011;1808;53.596;9.972;2023-02-24T12:46:34;12.40;;;5.88;;
3587;SDS011;1808;53.596;9.972;2023-02-24T12:49:06;15.50;;;6.75;;
3587;SDS011;1808;53.596;9.972;2023-02-24T12:51:44;20.10;;;8.52;;
3587;SDS011;1808;53.596;9.972;2023-02-24T12:54:17;15.25;;;6.50;;
3587;SDS011;1808;53.596;9.972;2023-02-24T12:56:48;16.88;;;7.28;;
3587;SDS011;1808;53.596;9.972;2023-02-24T12:59:19;17.48;;;7.07;;
3587;SDS011;1808;53.596;9.972;2023-02-24T13:01:50;17.25;;;9.27;;
3587;SDS011;1808;53.596;9.972;2023-02-24T13:04:22;25.40;;;8.45;;
3587;SDS011;1808;53.596;9.972;2023-02-24T13:06:57;16.35;;;8.20;;
3587;SDS011;1808;53.596;9.972;2023-02-24T13:09:31;24.30;;;10.75;;
3587;SDS011;1808;53.596;9.972;2023-02-24T13:12:02;19.45;;;8.32;;
3587;SDS011;1808;53.596;9.972;2023-02-24T13:14:33;16.25;;;7.22;;
3587;SDS011;1808;53.596;9.972;2023-02-24T13:17:04;24.38;;;10.90;;
3587;SDS011;1808;53.596;9.972;2023-02-24T13:19:41;23.50;;;6.18;;
3587;SDS011;1808;53.596;9.972;2023-02-24T13:22:20;19.75;;;7.38;;
3587;SDS011;1808;53.596;9.972;2023-02-24T13:24:56;14.95;;;7.32;;
3587;SDS011;1808;53.596;9.972;2023-02-24T13:27:25;14.73;;;6.32;;
3587;SDS011;1808;53.596;9.972;2023-02-24T13:29:55;20.02;;;8.23;;
3587;SDS011;1808;53.596;9.972;2023-02-24T13:32:23;17.23;;;6.30;;
3587;SDS011;1808;53.596;9.972;2023-02-24T13:34:52;15.63;;;6.53;;
3587;SDS011;1808;53.596;9.972;2023-02-24T13:37:25;20.02;;;6.50;;
3587;SDS011;1808;53.596;9.972;2023-02-24T13:39:52;17.58;;;6.28;;
3587;SDS011;1808;53.596;9.972;2023-02-24T13:42:20;16.90;;;4.80;;
3587;SDS011;1808;53.596;9.972;2023-02-24T13:44:48;9.02;;;4.63;;
3587;SDS011;1808;53.596;9.972;2023-02-24T13:47:29;10.27;;;4.18;;
3587;SDS011;1808;53.596;9.972;2023-02-24T13:50:12;11.65;;;3.42;;
3587;SDS011;1808;53.596;9.972;2023-02-24T13:52:46;16.92;;;4.10;;
3587;SDS011;1808;53.596;9.972;2023-02-24T13:55:22;11.95;;;2.45;;
3587;SDS011;1808;53.596;9.972;2023-02-24T13:58:04;7.72;;;1.98;;
3587;SDS011;1808;53.596;9.972;2023-02-24T14:00:39;13.55;;;2.85;;
3587;SDS011;1808;53.596;9.972;2023-02-24T14:03:16;9.95;;;2.53;;
3587;SDS011;1808;53.596;9.972;2023-02-24T14:05:44;12.73;;;2.25;;
3587;SDS011;1808;53.596;9.972;2023-02-24T14:08:16;11.10;;;1.17;;
3587;SDS011;1808;53.596;9.972;2023-02-24T14:10:44;12.77;;;2.20;;
3587;SDS011;1808;53.596;9.972;2023-02-24T14:13:13;13.57;;;2.33;;
3587;SDS011;1808;53.596;9.972;2023-02-24T14:15:42;8.45;;;1.88;;
3587;SDS011;1808;53.596;9.972;2023-02-24T14:18:16;11.02;;;1.92;;
3587;SDS011;1808;53.596;9.972;2023-02-24T14:20:44;8.05;;;1.25;;
3587;SDS011;1808;53.596;9.972;2023-02-24T14:23:18;6.85;;;1.30;;
3587;SDS011;1808;53.596;9.972;2023-02-24T14:25:47;11.60;;;2.38;;
3587;SDS011;1808;53.596;9.972;2023-02-24T14:28:18;15.25;;;2.42;;
3587;SDS011;1808;53.596;9.972;2023-02-24T14:30:49;9.80;;;2.08;;
3587;SDS011;1808;53.596;9.972;2023-02-24T14:33:24;11.30;;;1.80;;
3587;SDS011;1808;53.596;9.972;2023-02-24T14:35:53;11.65;;;1.73;;
3587;SDS011;1808;53.596;9.972;2023-02-24T14:38:26;13.55;;;2.42;;
3587;SDS011;1808;53.596;9.972;2023-02-24T14:40:53;20.17;;;2.65;;
3587;SDS011;1808;53.596;9.972;2023-02-24T14:43:19;19.55;;;2.33;;
3587;SDS011;1808;53.596;9.972;2023-02-24T14:45:46;13.30;;;1.35;;
3587;SDS011;1808;53.596;9.972;2023-02-24T14:48:18;11.45;;;2.03;;
3587;SDS011;1808;53.596;9.972;2023-02-24T14:50:47;7.03;;;1.17;;
3587;SDS011;1808;53.596;9.972;2023-02-24T14:53:17;13.20;;;2.40;;
3587;SDS011;1808;53.596;9.972;2023-02-24T14:55:45;12.52;;;1.60;;
3587;SDS011;1808;53.596;9.972;2023-02-24T14:58:13;16.08;;;2.08;;
3587;SDS011;1808;53.596;9.972;2023-02-24T15:00:42;14.35;;;2.28;;
3587;SDS011;1808;53.596;9.972;2023-02-24T15:03:13;13.25;;;2.10;;
3587;SDS011;1808;53.596;9.972;2023-02-24T15:05:43;7.13;;;2.10;;
3587;SDS011;1808;53.596;9.972;2023-02-24T15:08:17;8.15;;;1.23;;
3587;SDS011;1808;53.596;9.972;2023-02-24T15:10:50;9.93;;;1.70;;
3587;SDS011;1808;53.596;9.972;2023-02-24T15:13:17;11.40;;;1.50;;
3587;SDS011;1808;53.596;9.972;2023-02-24T15:15:51;8.27;;;1.77;;
3587;SDS011;1808;53.596;9.972;2023-02-24T15:18:19;8.02;;;1.15;;
3587;SDS011;1808;53.596;9.972;2023-02-24T15:20:57;14.48;;;1.48;;
3587;SDS011;1808;53.596;9.972;2023-02-24T15:23:27;8.77;;;1.17;;
3587;SDS011;1808;53.596;9.972;2023-02-24T15:25:56;5.50;;;1.30;;
3587;SDS011;1808;53.596;9.972;2023-02-24T15:28:24;7.18;;;1.33;;
3587;SDS011;1808;53.596;9.972;2023-02-24T15:30:54;10.75;;;1.20;;
3587;SDS011;1808;53.596;9.972;2023-02-24T15:33:27;9.13;;;1.35;;
3587;SDS011;1808;53.596;9.972;2023-02-24T15:35:58;6.55;;;1.15;;
3587;SDS011;1808;53.596;9.972;2023-02-24T15:38:28;10.15;;;1.15;;
3587;SDS011;1808;53.596;9.972;2023-02-24T15:40:56;13.20;;;2.25;;